Time;durP1;ratioP1;P1;durP2;ratioP2;P2;SDS_P1;SDS_P2;PMS_P1;PMS_P2;Temp;Humidity;BMP_temperature;BMP_pressure;BME280_temperature;BME280_humidity;BME280_pressure;Samples;Min_cycle;Max_cycle;Signal;HPM_P1;HPM_P2
2021/05/20 00:01:44;;;;;;;11.32;7.80;;;9.20;94.70;;;;;;5916001;40;20049;-69
2021/05/20 00:05:48;;;;;;;12.95;8.40;;;9.20;94.70;;;;;;5914770;40;20301;-69
2021/05/20 00:09:53;;;;;;;11.88;7.93;;;9.10;94.70;;;;;;5915418;40;20063;-69
2021/05/20 00:13:58;;;;;;;10.25;7.95;;;9.20;94.80;;;;;;5916572;40;20115;-69
2021/05/20 00:18:03;;;;;;;12.63;8.07;;;9.10;94.80;;;;;;5914684;40;20053;-69
2021/05/20 00:22:10;;;;;;;10.02;7.18;;;9.10;94.80;;;;;;5915209;40;20053;-69
2021/05/20 00:26:17;;;;;;;9.90;7.85;;;9.10;94.70;;;;;;5914686;40;20064;-69
2021/05/20 00:30:24;;;;;;;10.70;7.63;;;9.10;94.80;;;;;;5906365;40;20053;-69
2021/05/20 00:34:28;;;;;;;9.90;7.85;;;9.10;94.80;;;;;;5917545;40;20061;-69
2021/05/20 00:38:33;;;;;;;11.65;7.80;;;9.10;94.80;;;;;;5906580;40;20053;-69
2021/05/20 00:42:38;;;;;;;10.38;7.60;;;9.10;94.80;;;;;;5913090;40;20053;-69
2021/05/20 00:46:43;;;;;;;10.30;7.85;;;9.10;94.70;;;;;;5917142;40;20857;-69
2021/05/20 00:50:45;;;;;;;9.70;7.78;;;9.10;94.80;;;;;;5907620;40;20134;-69
2021/05/20 00:54:54;;;;;;;7.93;6.60;;;9.20;94.80;;;;;;5908929;40;20080;-69
2021/05/20 00:58:59;;;;;;;11.57;7.43;;;9.20;94.80;;;;;;5916122;40;20068;-69
2021/05/20 01:03:11;;;;;;;11.60;7.18;;;9.20;94.80;;;;;;5917399;39;20049;-69
2021/05/20 01:07:19;;;;;;;7.32;5.95;;;9.20;94.80;;;;;;5914972;40;20069;-69
2021/05/20 01:11:23;;;;;;;10.70;7.70;;;9.20;94.80;;;;;;5920362;39;20134;-69
2021/05/20 01:15:32;;;;;;;10.43;7.00;;;9.20;94.80;;;;;;5914689;40;20417;-69
2021/05/20 01:19:43;;;;;;;10.85;7.32;;;9.20;94.90;;;;;;5916563;40;20074;-69
2021/05/20 01:23:47;;;;;;;8.55;6.18;;;9.20;94.90;;;;;;5906026;40;20045;-69
2021/05/20 01:27:53;;;;;;;8.85;7.55;;;9.20;94.80;;;;;;5916883;40;20056;-69
2021/05/20 01:32:02;;;;;;;9.88;7.30;;;9.30;94.90;;;;;;5918443;40;20049;-69
2021/05/20 01:36:07;;;;;;;10.10;7.00;;;9.30;94.80;;;;;;5914438;40;20042;-69
2021/05/20 01:40:14;;;;;;;10.32;6.68;;;9.30;94.90;;;;;;5906091;40;20061;-69
2021/05/20 01:44:21;;;;;;;8.68;5.90;;;9.40;95.00;;;;;;5906923;40;20041;-69
2021/05/20 01:48:36;;;;;;;10.45;6.50;;;9.30;95.10;;;;;;5916356;40;20053;-68
2021/05/20 01:52:41;;;;;;;7.65;5.20;;;9.30;95.00;;;;;;5919297;40;20041;-69
2021/05/20 01:56:46;;;;;;;6.55;4.68;;;9.30;94.80;;;;;;5914478;40;20089;-69
2021/05/20 02:00:51;;;;;;;5.95;4.38;;;9.30;95.10;;;;;;5916538;40;20477;-69
2021/05/20 02:04:56;;;;;;;5.20;4.18;;;9.30;94.90;;;;;;5917577;40;20089;-69
2021/05/20 02:09:01;;;;;;;6.07;3.53;;;9.30;95.00;;;;;;5916600;40;20517;-69
2021/05/20 02:13:08;;;;;;;5.45;4.00;;;9.30;94.80;;;;;;5918051;40;20358;-69
2021/05/20 02:17:13;;;;;;;6.00;4.28;;;9.40;94.80;;;;;;5906497;40;20052;-68
2021/05/20 02:21:18;;;;;;;5.85;4.20;;;9.40;94.90;;;;;;5914387;40;20487;-69
2021/05/20 02:25:25;;;;;;;6.22;4.15;;;9.40;94.90;;;;;;5916332;40;20061;-68
2021/05/20 02:29:30;;;;;;;5.38;3.45;;;9.40;94.90;;;;;;5917076;40;20149;-69
2021/05/20 02:33:32;;;;;;;5.70;3.25;;;9.40;94.90;;;;;;5914660;40;20052;-69
2021/05/20 02:37:39;;;;;;;7.50;4.18;;;9.40;94.80;;;;;;5917370;39;20080;-69
2021/05/20 02:41:46;;;;;;;5.25;3.75;;;9.40;94.90;;;;;;5915318;40;20390;-69
2021/05/20 02:45:52;;;;;;;5.90;3.67;;;9.40;94.90;;;;;;5917300;40;20041;-69
2021/05/20 02:49:56;;;;;;;7.55;5.13;;;9.40;95.00;;;;;;5910253;40;20044;-69
2021/05/20 02:54:03;;;;;;;7.70;4.30;;;9.40;95.00;;;;;;5916892;40;20071;-69
2021/05/20 02:58:14;;;;;;;8.10;4.10;;;9.40;94.90;;;;;;5916074;39;20075;-69
2021/05/20 03:02:18;;;;;;;5.10;3.95;;;9.40;95.00;;;;;;5917087;40;20037;-68
2021/05/20 03:06:27;;;;;;;7.25;4.07;;;9.40;95.00;;;;;;5915421;40;20060;-69
2021/05/20 03:10:33;;;;;;;6.50;4.82;;;9.40;95.10;;;;;;5918198;40;20049;-69
2021/05/20 03:14:40;;;;;;;6.75;4.30;;;9.40;95.30;;;;;;5908488;40;20699;-69
2021/05/20 03:18:45;;;;;;;6.97;4.70;;;9.30;95.30;;;;;;5916143;40;20053;-69
2021/05/20 03:22:51;;;;;;;6.63;4.70;;;9.40;95.30;;;;;;5914538;39;20301;-69
2021/05/20 03:26:58;;;;;;;6.38;4.22;;;9.30;95.30;;;;;;5908708;40;20056;-69
2021/05/20 03:31:05;;;;;;;6.80;4.55;;;9.30;95.30;;;;;;5917760;40;20061;-69
2021/05/20 03:35:10;;;;;;;7.72;4.65;;;9.30;95.40;;;;;;5909647;40;20151;-68
2021/05/20 03:39:15;;;;;;;7.50;4.85;;;9.30;95.50;;;;;;5904013;40;20059;-69
2021/05/20 03:43:19;;;;;;;6.70;4.30;;;9.40;95.40;;;;;;5911534;40;20061;-69
2021/05/20 03:47:24;;;;;;;6.90;4.63;;;9.50;95.40;;;;;;5917637;40;20379;-69
2021/05/20 03:51:31;;;;;;;6.55;4.22;;;9.50;95.40;;;;;;5914749;40;20052;-69
2021/05/20 03:55:35;;;;;;;5.38;3.47;;;9.50;95.40;;;;;;5916573;40;20045;-69
2021/05/20 03:59:42;;;;;;;5.55;3.03;;;9.50;95.40;;;;;;5914965;40;20056;-68
2021/05/20 04:03:50;;;;;;;5.32;2.80;;;9.50;95.30;;;;;;5915698;40;20049;-68
2021/05/20 04:07:54;;;;;;;5.78;2.60;;;9.50;95.40;;;;;;5916755;40;20122;-69
2021/05/20 04:11:59;;;;;;;4.18;2.35;;;9.60;95.30;;;;;;5910097;40;20066;-69
2021/05/20 04:16:05;;;;;;;6.25;2.45;;;9.60;95.30;;;;;;5913278;40;20049;-69
2021/05/20 04:20:11;;;;;;;5.47;2.55;;;9.70;95.20;;;;;;5915434;40;20076;-70
2021/05/20 04:24:15;;;;;;;4.75;2.97;;;9.70;95.20;;;;;;5917754;40;20060;-69
2021/05/20 04:28:19;;;;;;;6.93;2.78;;;10.80;95.50;;;;;;5917500;40;20049;-69
2021/05/20 04:32:26;;;;;;;6.32;2.95;;;10.10;95.00;;;;;;5917568;40;20049;-69
2021/05/20 04:36:31;;;;;;;4.70;2.05;;;10.30;95.00;;;;;;5914456;40;20048;-70
2021/05/20 04:40:40;;;;;;;6.65;2.13;;;10.50;94.50;;;;;;5918405;40;20054;-69
2021/05/20 04:44:48;;;;;;;5.32;1.60;;;10.70;94.50;;;;;;5917078;39;20510;-69
2021/05/20 04:48:52;;;;;;;5.35;2.38;;;11.70;94.60;;;;;;5908785;40;20080;-70
2021/05/20 04:52:57;;;;;;;4.15;1.90;;;11.20;94.10;;;;;;5914941;40;20060;-69
2021/05/20 04:57:01;;;;;;;4.40;1.90;;;11.30;93.90;;;;;;5915115;40;20512;-69
2021/05/20 05:01:06;;;;;;;5.65;1.92;;;11.50;93.80;;;;;;5909596;40;20060;-69
2021/05/20 05:05:13;;;;;;;5.13;1.40;;;11.60;94.00;;;;;;5917216;40;20480;-69
2021/05/20 05:09:17;;;;;;;4.68;1.50;;;11.80;93.70;;;;;;5905743;40;20056;-70
2021/05/20 05:13:24;;;;;;;7.28;1.75;;;11.70;93.40;;;;;;5917443;40;20036;-69
2021/05/20 05:17:34;;;;;;;6.13;1.58;;;11.60;93.60;;;;;;5910464;40;20053;-69
2021/05/20 05:21:35;;;;;;;4.45;1.80;;;11.40;93.70;;;;;;5916871;40;20041;-69
2021/05/20 05:25:40;;;;;;;6.47;1.65;;;11.30;93.90;;;;;;5907607;40;20057;-71
2021/05/20 05:29:44;;;;;;;6.13;1.38;;;11.20;94.00;;;;;;5914712;40;21402;-69
2021/05/20 05:33:53;;;;;;;4.22;1.48;;;11.10;94.20;;;;;;5910212;40;20089;-70
2021/05/20 05:37:58;;;;;;;18.75;3.08;;;11.10;94.50;;;;;;5917610;40;20372;-70
2021/05/20 05:42:04;;;;;;;4.32;1.40;;;11.20;94.40;;;;;;5907420;40;20423;-69
2021/05/20 05:46:11;;;;;;;5.93;1.40;;;11.20;94.30;;;;;;5911179;40;20073;-69
2021/05/20 05:50:15;;;;;;;7.60;1.73;;;10.70;94.10;;;;;;5918722;40;20044;-69
2021/05/20 05:54:20;;;;;;;4.50;1.15;;;11.30;94.00;;;;;;5907002;40;20191;-69
2021/05/20 05:58:25;;;;;;;7.07;1.50;;;11.30;94.00;;;;;;5918230;40;20044;-69
2021/05/20 06:02:32;;;;;;;5.57;1.20;;;11.30;94.00;;;;;;5920095;40;20126;-69
2021/05/20 06:06:37;;;;;;;7.40;1.50;;;11.20;94.10;;;;;;5897862;39;20045;-70
2021/05/20 06:10:42;;;;;;;7.90;1.48;;;11.20;94.30;;;;;;5916399;40;20306;-69
2021/05/20 06:14:47;;;;;;;4.50;1.30;;;11.20;94.20;;;;;;5913589;40;20357;-70
2021/05/20 06:18:51;;;;;;;3.47;1.30;;;11.20;94.20;;;;;;5917266;40;20057;-69
2021/05/20 06:22:56;;;;;;;12.20;2.08;;;11.20;94.10;;;;;;5909427;40;20045;-70
2021/05/20 06:27:00;;;;;;;4.72;1.40;;;11.30;94.10;;;;;;5905594;40;20068;-70
2021/05/20 06:31:07;;;;;;;6.22;1.42;;;11.30;94.10;;;;;;5917283;40;20091;-69
2021/05/20 06:35:12;;;;;;;3.42;1.00;;;11.20;94.10;;;;;;5914934;40;20065;-70
2021/05/20 06:39:19;;;;;;;8.07;1.23;;;11.40;94.10;;;;;;5909023;40;20534;-69
2021/05/20 06:43:24;;;;;;;5.78;1.02;;;11.60;93.70;;;;;;5914057;40;20451;-69
2021/05/20 06:47:32;;;;;;;4.63;1.10;;;11.90;93.30;;;;;;5916696;40;20101;-69
2021/05/20 06:51:37;;;;;;;7.22;1.00;;;12.10;92.80;;;;;;5914226;40;20392;-69
2021/05/20 06:55:42;;;;;;;3.47;1.00;;;12.10;92.80;;;;;;5916698;40;20405;-70
2021/05/20 06:59:57;;;;;;;5.05;1.38;;;12.10;92.90;;;;;;5917646;40;20561;-70
2021/05/20 07:04:04;;;;;;;3.17;1.10;;;12.10;92.80;;;;;;5917607;40;20045;-70
2021/05/20 07:08:12;;;;;;;8.02;1.40;;;12.20;92.90;;;;;;5912202;40;20552;-69
2021/05/20 07:12:19;;;;;;;6.10;1.35;;;12.30;92.60;;;;;;5913296;40;20064;-70
2021/05/20 07:16:24;;;;;;;3.60;1.00;;;12.40;93.00;;;;;;5907383;40;20052;-70
2021/05/20 07:20:29;;;;;;;3.13;0.75;;;12.60;92.80;;;;;;5908325;40;20064;-70
2021/05/20 07:24:33;;;;;;;3.35;0.85;;;12.90;92.00;;;;;;5896657;40;20065;-70
2021/05/20 07:28:43;;;;;;;1.88;0.65;;;13.10;91.80;;;;;;5915601;40;20076;-70
2021/05/20 07:32:48;;;;;;;5.63;0.80;;;13.20;91.40;;;;;;5914494;40;20101;-70
2021/05/20 07:36:52;;;;;;;7.00;0.80;;;13.10;91.10;;;;;;5915672;40;20077;-70
2021/05/20 07:40:57;;;;;;;7.43;1.10;;;13.00;91.50;;;;;;5917915;40;20067;-69
2021/05/20 07:45:05;;;;;;;4.40;1.10;;;12.90;91.80;;;;;;5914251;40;20048;-69
2021/05/20 07:49:11;;;;;;;5.03;1.13;;;12.80;92.00;;;;;;5915586;40;20084;-70
2021/05/20 07:53:18;;;;;;;3.47;1.10;;;12.80;92.00;;;;;;5915672;40;20067;-70
2021/05/20 07:57:23;;;;;;;2.65;0.93;;;12.80;92.20;;;;;;5916235;39;20085;-70
2021/05/20 08:01:33;;;;;;;6.57;1.05;;;12.80;92.00;;;;;;5914763;40;20057;-69
2021/05/20 08:05:41;;;;;;;2.47;1.02;;;12.80;92.10;;;;;;5905158;40;20049;-70
2021/05/20 08:10:03;;;;;;;3.33;0.93;;;12.80;91.90;;;;;;5913888;40;20406;-69
2021/05/20 08:14:10;;;;;;;6.53;1.42;;;12.70;91.90;;;;;;5913551;40;20052;-70
2021/05/20 08:18:16;;;;;;;8.20;1.65;;;12.70;92.00;;;;;;5912658;40;20573;-70
2021/05/20 08:22:21;;;;;;;7.40;1.17;;;12.70;92.30;;;;;;5906180;39;20327;-70
2021/05/20 08:26:28;;;;;;;7.60;1.40;;;12.70;91.90;;;;;;5914836;40;20416;-70
2021/05/20 08:30:36;;;;;;;6.65;1.40;;;12.60;92.20;;;;;;5905114;40;20045;-70
2021/05/20 08:34:40;;;;;;;3.58;0.93;;;12.70;92.10;;;;;;5914680;40;20045;-70
2021/05/20 08:38:45;;;;;;;4.10;0.73;;;13.00;91.80;;;;;;5916744;40;20040;-70
2021/05/20 08:42:49;;;;;;;6.03;1.25;;;13.30;91.30;;;;;;5912479;40;20053;-70
2021/05/20 08:47:00;;;;;;;5.45;1.08;;;13.30;91.00;;;;;;5914601;40;20088;-70
2021/05/20 08:51:05;;;;;;;4.20;0.95;;;13.30;91.30;;;;;;5913947;40;20072;-70
2021/05/20 08:55:15;;;;;;;9.32;1.48;;;13.30;91.30;;;;;;5908781;40;20111;-70
2021/05/20 08:59:21;;;;;;;5.53;0.93;;;13.30;91.60;;;;;;5916603;40;20060;-70
2021/05/20 09:03:25;;;;;;;5.05;0.88;;;13.50;91.70;;;;;;5913568;39;20084;-70
2021/05/20 09:07:34;;;;;;;4.10;0.90;;;13.60;91.20;;;;;;5907247;40;20088;-70
2021/05/20 09:11:48;;;;;;;2.88;0.80;;;13.70;91.10;;;;;;5915979;40;20065;-70
2021/05/20 09:15:53;;;;;;;5.97;1.27;;;13.70;91.30;;;;;;5915203;40;20146;-70
2021/05/20 09:19:59;;;;;;;6.43;0.98;;;13.70;91.40;;;;;;5908899;40;20045;-70
2021/05/20 09:24:04;;;;;;;5.68;1.17;;;13.60;91.40;;;;;;5914928;40;20060;-70
2021/05/20 09:28:11;;;;;;;8.13;1.35;;;13.50;91.80;;;;;;5915896;40;20064;-70
2021/05/20 09:32:15;;;;;;;4.40;1.10;;;13.50;91.80;;;;;;5913093;40;20067;-70
2021/05/20 09:36:24;;;;;;;7.00;1.10;;;13.60;91.60;;;;;;5915391;40;20056;-70
2021/05/20 09:40:44;;;;;;;4.70;0.88;;;13.60;91.60;;;;;;5910256;40;20435;-70
2021/05/20 09:44:52;;;;;;;3.92;0.82;;;13.70;91.40;;;;;;5916266;40;20044;-70
2021/05/20 09:48:58;;;;;;;4.82;0.93;;;13.90;90.90;;;;;;5916679;39;20146;-70
2021/05/20 09:53:08;;;;;;;3.78;0.90;;;14.00;91.00;;;;;;5916353;40;20081;-70
2021/05/20 09:57:34;;;;;;;3.60;0.80;;;14.20;90.40;;;;;;5916065;40;20085;-69
2021/05/20 10:01:40;;;;;;;3.92;0.98;;;14.20;90.70;;;;;;5918401;40;20061;-69
2021/05/20 10:05:47;;;;;;;4.53;1.00;;;14.20;90.50;;;;;;5906292;40;20072;-69
2021/05/20 10:09:55;;;;;;;4.35;0.93;;;14.30;90.70;;;;;;5916601;39;20068;-69
2021/05/20 10:14:04;;;;;;;2.83;0.70;;;14.30;89.80;;;;;;5905475;40;20053;-69
2021/05/20 10:18:11;;;;;;;1.83;0.80;;;14.20;90.00;;;;;;5915394;40;20563;-69
2021/05/20 10:22:18;;;;;;;3.05;0.82;;;14.20;89.40;;;;;;5916208;40;20051;-70
2021/05/20 10:26:26;;;;;;;3.00;0.73;;;14.30;89.50;;;;;;5917797;40;20065;-69
2021/05/20 10:30:33;;;;;;;3.85;0.88;;;14.60;89.60;;;;;;5905345;40;20041;-69
2021/05/20 10:34:57;;;;;;;5.68;0.80;;;15.00;89.20;;;;;;5913391;40;20103;-69
2021/05/20 10:39:22;;;;;;;2.28;0.70;;;15.40;87.10;;;;;;5914094;39;20754;-70
2021/05/20 10:43:27;;;;;;;2.88;0.50;;;15.60;83.40;;;;;;5918030;40;20055;-69
2021/05/20 10:47:32;;;;;;;2.83;0.80;;;15.80;88.00;;;;;;5914124;40;20146;-71
2021/05/20 10:51:42;;;;;;;1.88;0.50;;;16.20;86.00;;;;;;5909115;40;20119;-69
2021/05/20 10:55:46;;;;;;;2.53;0.40;;;16.50;84.90;;;;;;5913478;40;20053;-69
2021/05/20 10:59:51;;;;;;;4.15;0.90;;;16.50;84.70;;;;;;5914159;40;20348;-69
2021/05/20 11:04:06;;;;;;;3.40;0.50;;;16.50;83.60;;;;;;5917502;40;20057;-70
2021/05/20 11:08:26;;;;;;;2.47;0.65;;;16.20;84.10;;;;;;5907128;40;20052;-69
2021/05/20 11:12:54;;;;;;;5.82;0.65;;;15.90;86.60;;;;;;5911051;40;20078;-69
2021/05/20 11:16:58;;;;;;;2.67;0.70;;;15.50;87.30;;;;;;5912328;40;20166;-71
2021/05/20 11:21:03;;;;;;;1.60;0.60;;;15.30;87.30;;;;;;5903600;40;20056;-71
2021/05/20 11:25:09;;;;;;;1.80;0.60;;;15.10;87.80;;;;;;5907040;40;20111;-71
2021/05/20 11:29:16;;;;;;;2.78;0.60;;;15.10;86.70;;;;;;5903526;40;20117;-71
2021/05/20 11:33:22;;;;;;;2.92;0.63;;;15.20;88.40;;;;;;5902610;40;20061;-71
2021/05/20 11:37:36;;;;;;;4.03;0.60;;;15.60;86.70;;;;;;5913501;39;20127;-71
2021/05/20 11:41:43;;;;;;;3.60;0.50;;;15.90;84.30;;;;;;5913210;40;20541;-71
2021/05/20 11:45:48;;;;;;;2.78;0.77;;;16.00;85.10;;;;;;5916571;40;20045;-69
2021/05/20 11:49:53;;;;;;;2.03;0.70;;;16.00;85.80;;;;;;5915010;40;20057;-69
2021/05/20 11:54:09;;;;;;;2.45;0.60;;;16.00;85.20;;;;;;5913693;40;20436;-69
2021/05/20 11:58:14;;;;;;;1.52;0.50;;;16.00;84.90;;;;;;5914665;39;20099;-69
2021/05/20 12:02:30;;;;;;;0.98;0.50;;;16.00;83.80;;;;;;5915506;40;20039;-69
2021/05/20 12:06:37;;;;;;;1.33;0.50;;;15.80;85.20;;;;;;5915589;40;20049;-69
2021/05/20 12:10:50;;;;;;;2.00;0.45;;;15.70;84.70;;;;;;5914407;40;20113;-69
2021/05/20 12:14:58;;;;;;;3.65;0.70;;;15.70;85.90;;;;;;5914455;40;20115;-69
2021/05/20 12:19:08;;;;;;;2.05;0.57;;;16.00;84.70;;;;;;5916140;40;20060;-71
2021/05/20 12:23:12;;;;;;;1.92;0.50;;;16.20;85.10;;;;;;5906280;40;20134;-70
2021/05/20 12:27:25;;;;;;;2.15;0.50;;;16.40;84.80;;;;;;5914814;40;20057;-70
2021/05/20 12:31:30;;;;;;;1.40;0.40;;;16.60;83.80;;;;;;5909294;40;20057;-70
2021/05/20 12:35:40;;;;;;;5.18;0.70;;;16.50;83.90;;;;;;5912303;40;20045;-69
2021/05/20 12:39:48;;;;;;;1.85;0.47;;;16.40;84.40;;;;;;5906850;40;20073;-70
2021/05/20 12:43:52;;;;;;;1.77;0.60;;;16.20;84.20;;;;;;5914808;40;20398;-70
2021/05/20 12:47:59;;;;;;;2.15;0.60;;;15.90;85.10;;;;;;5916582;40;20431;-69
2021/05/20 12:52:06;;;;;;;2.40;0.60;;;15.70;86.00;;;;;;5917160;39;20510;-69
2021/05/20 12:56:22;;;;;;;1.60;0.80;;;15.60;85.70;;;;;;5916430;40;20150;-69
2021/05/20 13:00:29;;;;;;;4.28;0.90;;;15.60;85.40;;;;;;5915239;39;20680;-71
2021/05/20 13:04:34;;;;;;;2.25;0.80;;;15.40;86.90;;;;;;5916366;40;20411;-69
2021/05/20 13:08:42;;;;;;;2.67;0.90;;;15.20;87.00;;;;;;5918200;40;20045;-69
2021/05/20 13:12:46;;;;;;;1.45;0.70;;;15.10;88.10;;;;;;5916147;40;20138;-69
2021/05/20 13:16:59;;;;;;;1.75;0.60;;;15.40;87.10;;;;;;5916177;40;20057;-70
2021/05/20 13:25:24;;;;;;;4.47;0.77;;;15.80;86.60;;;;;;5906376;39;20320;-70
2021/05/20 13:30:19;;;;;;;3.90;0.50;;;16.00;85.40;;;;;;5918351;40;20065;-69
2021/05/20 13:34:15;;;;;;;;;;;16.00;85.30;;;;;;5906319;40;20370;-70
2021/05/20 13:38:20;;;;;;;3.15;0.90;;;16.10;87.40;;;;;;5896158;40;20318;-70
2021/05/20 13:42:25;;;;;;;1.77;0.70;;;15.90;86.20;;;;;;5908599;40;20510;-70
2021/05/20 13:46:30;;;;;;;2.58;0.98;;;15.80;86.90;;;;;;5914778;40;20403;-70
2021/05/20 13:50:37;;;;;;;3.10;1.00;;;15.70;86.30;;;;;;5905001;40;20068;-70
2021/05/20 13:54:46;;;;;;;1.85;0.68;;;15.60;86.70;;;;;;5914746;40;20353;-71
2021/05/20 13:58:53;;;;;;;2.70;0.73;;;15.60;86.00;;;;;;5905884;40;20061;-70
2021/05/20 14:03:03;;;;;;;1.15;0.50;;;15.60;86.60;;;;;;5913278;40;20112;-70
2021/05/20 14:07:16;;;;;;;2.33;0.73;;;15.60;86.80;;;;;;5914732;40;20052;-70
2021/05/20 14:11:23;;;;;;;6.72;0.80;;;15.50;86.80;;;;;;5907765;40;20394;-71
2021/05/20 14:15:28;;;;;;;2.10;0.95;;;15.50;86.80;;;;;;5909923;40;20139;-70
2021/05/20 14:19:35;;;;;;;1.70;0.50;;;15.50;86.70;;;;;;5906634;40;20428;-70
2021/05/20 14:23:52;;;;;;;2.70;0.70;;;15.50;86.60;;;;;;5915406;40;20428;-71
2021/05/20 14:27:57;;;;;;;1.85;0.60;;;15.40;86.70;;;;;;5913232;40;20364;-71
2021/05/20 14:32:01;;;;;;;3.13;1.20;;;15.50;86.90;;;;;;5918387;40;20459;-71
2021/05/20 14:36:08;;;;;;;2.25;0.70;;;15.50;86.00;;;;;;5913892;40;20309;-70
2021/05/20 14:40:15;;;;;;;2.53;0.90;;;15.50;86.40;;;;;;5895381;39;20346;-70
2021/05/20 14:44:25;;;;;;;2.38;0.77;;;15.40;86.60;;;;;;5905557;40;20036;-71
2021/05/20 14:48:35;;;;;;;3.15;0.98;;;15.30;87.50;;;;;;5905300;40;20064;-71
2021/05/20 14:52:45;;;;;;;3.00;1.00;;;15.30;86.40;;;;;;5907455;40;20041;-70
2021/05/20 15:05:35;;;;;;;3.75;0.70;;;15.40;86.00;;;;;;5915145;40;20037;-70
2021/05/20 15:18:07;;;;;;;2.00;1.00;;;15.30;86.60;;;;;;5905552;39;20130;-69
2021/05/20 15:22:17;;;;;;;1.63;0.70;;;15.30;86.90;;;;;;5905988;40;20040;-69
2021/05/20 15:26:22;;;;;;;1.88;1.00;;;15.50;84.90;;;;;;5914157;40;20301;-70
2021/05/20 15:30:30;;;;;;;2.70;0.98;;;15.50;85.80;;;;;;5916265;40;20033;-70
2021/05/20 15:34:37;;;;;;;2.03;1.00;;;15.40;85.60;;;;;;5906504;40;20065;-70
2021/05/20 15:38:50;;;;;;;2.72;1.00;;;15.40;85.90;;;;;;5902977;40;20416;-70
2021/05/20 15:42:57;;;;;;;3.25;0.90;;;15.40;86.00;;;;;;5914630;40;20029;-69
2021/05/20 15:47:07;;;;;;;2.70;1.20;;;15.40;85.60;;;;;;5915619;40;20412;-70
2021/05/20 15:51:12;;;;;;;3.38;1.00;;;15.40;86.10;;;;;;5916983;40;20049;-69
2021/05/20 15:55:18;;;;;;;2.38;1.00;;;15.40;86.70;;;;;;5914567;40;20060;-69
2021/05/20 15:59:23;;;;;;;2.60;1.10;;;15.30;86.60;;;;;;5913926;40;20136;-70
2021/05/20 16:03:28;;;;;;;2.78;1.48;;;15.30;86.60;;;;;;5912362;40;20077;-70
2021/05/20 16:16:10;;;;;;;2.45;1.67;;;15.20;86.90;;;;;;5914155;40;20715;-70
2021/05/20 16:20:15;;;;;;;2.20;1.50;;;15.10;86.70;;;;;;5916998;40;20053;-69
2021/05/20 16:33:50;;;;;;;3.33;1.77;;;15.00;87.50;;;;;;5892369;40;20045;-70
2021/05/20 16:37:57;;;;;;;4.68;1.90;;;15.10;87.00;;;;;;5908940;40;20056;-70
2021/05/20 16:42:02;;;;;;;3.55;2.20;;;14.60;86.70;;;;;;5915211;40;20071;-70
2021/05/20 16:46:07;;;;;;;4.65;2.17;;;15.00;87.10;;;;;;5913661;40;20069;-70
2021/05/20 16:50:11;;;;;;;4.65;2.55;;;14.90;87.20;;;;;;5917101;40;20068;-70
2021/05/20 16:54:23;;;;;;;4.55;2.50;;;14.80;87.80;;;;;;5918240;40;20088;-70
2021/05/20 16:58:42;;;;;;;4.90;2.50;;;14.70;88.30;;;;;;5915803;40;20089;-70
2021/05/20 17:02:50;;;;;;;5.63;3.10;;;14.70;88.30;;;;;;5917879;40;20429;-69
2021/05/20 17:06:55;;;;;;;3.45;2.45;;;14.60;87.90;;;;;;5916443;40;20356;-69
2021/05/20 17:11:01;;;;;;;3.67;2.40;;;14.50;88.00;;;;;;5910485;40;20068;-70
2021/05/20 17:15:07;;;;;;;7.82;2.20;;;14.50;88.30;;;;;;5908551;40;20422;-70
2021/05/20 17:19:11;;;;;;;4.35;2.55;;;14.50;88.10;;;;;;5907013;40;20048;-69
2021/05/20 17:23:16;;;;;;;3.10;2.30;;;14.50;88.10;;;;;;5899886;40;20071;-70
2021/05/20 17:27:21;;;;;;;5.07;2.42;;;14.50;88.40;;;;;;5918276;40;20067;-69
2021/05/20 17:31:25;;;;;;;4.45;2.38;;;14.40;88.30;;;;;;5916029;40;20057;-69
2021/05/20 17:35:33;;;;;;;3.42;2.08;;;14.30;88.30;;;;;;5916079;40;20151;-69
2021/05/20 17:39:39;;;;;;;3.05;2.15;;;14.30;88.70;;;;;;5918839;39;20448;-69
2021/05/20 17:43:48;;;;;;;3.83;2.33;;;14.20;88.70;;;;;;5905940;40;20081;-69
2021/05/20 17:47:53;;;;;;;7.15;3.17;;;14.20;89.00;;;;;;5917315;40;20057;-69
2021/05/20 17:52:00;;;;;;;2.83;1.95;;;14.20;88.80;;;;;;5916048;40;20322;-70
2021/05/20 17:56:08;;;;;;;3.67;2.33;;;14.10;88.70;;;;;;5910813;40;20059;-69
2021/05/20 18:00:18;;;;;;;4.40;2.00;;;14.10;89.10;;;;;;5917152;40;20057;-69
2021/05/20 18:04:22;;;;;;;4.68;2.15;;;14.10;88.90;;;;;;5906889;40;20488;-69
2021/05/20 18:08:39;;;;;;;3.35;2.25;;;14.10;88.80;;;;;;5914107;40;20520;-70
2021/05/20 18:12:57;;;;;;;2.85;2.05;;;14.00;89.00;;;;;;5903656;40;20064;-70
2021/05/20 18:17:10;;;;;;;3.55;2.22;;;14.00;89.10;;;;;;5918480;40;20393;-70
2021/05/20 18:25:43;;;;;;;3.75;2.30;;;14.00;89.40;;;;;;5914594;40;20049;-70
2021/05/20 18:29:52;;;;;;;4.35;2.67;;;13.90;89.60;;;;;;5906835;40;20130;-70
2021/05/20 18:34:00;;;;;;;4.93;2.70;;;13.90;89.60;;;;;;5915125;40;20064;-70
2021/05/20 18:38:05;;;;;;;5.85;2.63;;;13.90;89.60;;;;;;5906113;39;20069;-70
2021/05/20 18:42:13;;;;;;;5.20;2.70;;;13.90;89.50;;;;;;5912310;40;20040;-70
2021/05/20 18:46:18;;;;;;;3.83;2.50;;;13.90;89.60;;;;;;5913760;40;20442;-70
2021/05/20 18:50:25;;;;;;;4.35;2.20;;;13.90;89.80;;;;;;5913711;40;20142;-70
2021/05/20 18:54:34;;;;;;;7.05;2.63;;;13.80;89.80;;;;;;5907345;40;20045;-70
2021/05/20 18:58:41;;;;;;;3.72;2.72;;;13.80;90.00;;;;;;5915361;40;20520;-69
2021/05/20 19:02:49;;;;;;;4.70;2.17;;;13.70;89.80;;;;;;5905935;40;20405;-69
2021/05/20 19:07:02;;;;;;;5.55;2.42;;;13.70;89.80;;;;;;5913724;39;20288;-70
2021/05/20 19:11:09;;;;;;;3.78;2.10;;;13.70;89.80;;;;;;5915274;40;20123;-70
2021/05/20 19:15:15;;;;;;;3.88;1.95;;;13.60;90.00;;;;;;5915005;40;20056;-70
2021/05/20 19:19:40;;;;;;;4.47;2.20;;;13.60;89.60;;;;;;5914750;40;20049;-69
2021/05/20 19:23:49;;;;;;;4.25;2.40;;;13.50;89.50;;;;;;5903802;40;20077;-70
2021/05/20 19:27:54;;;;;;;3.70;2.38;;;13.50;89.50;;;;;;5912978;40;20056;-69
2021/05/20 19:32:09;;;;;;;4.07;2.42;;;13.40;89.80;;;;;;5915694;40;20061;-70
2021/05/20 19:36:15;;;;;;;3.90;2.03;;;13.30;90.00;;;;;;5915618;40;20045;-69
2021/05/20 19:40:27;;;;;;;4.00;2.53;;;13.30;90.00;;;;;;5916393;39;20052;-69
2021/05/20 19:44:35;;;;;;;3.13;2.45;;;13.30;90.00;;;;;;5914466;40;20173;-69
2021/05/20 19:48:42;;;;;;;3.50;2.30;;;13.30;90.00;;;;;;5905189;40;20150;-70
2021/05/20 19:53:04;;;;;;;4.13;2.65;;;13.30;90.00;;;;;;5911394;40;20045;-70
2021/05/20 20:01:42;;;;;;;;;;;13.20;90.00;;;;;;5915092;40;20501;-70
2021/05/20 20:09:54;;;;;;;5.20;3.00;;;13.10;90.00;;;;;;5914865;40;20104;-70
2021/05/20 20:14:01;;;;;;;4.65;2.90;;;13.00;90.00;;;;;;5915781;40;20057;-70
2021/05/20 20:18:11;;;;;;;3.67;2.60;;;13.00;90.20;;;;;;5914821;40;20069;-69
2021/05/20 20:22:23;;;;;;;5.40;2.58;;;12.90;90.10;;;;;;5906859;40;20157;-69
2021/05/20 20:30:54;;;;;;;4.90;2.92;;;12.80;90.20;;;;;;5913940;40;20037;-69
2021/05/20 20:43:50;;;;;;;5.45;3.15;;;12.80;90.30;;;;;;5913692;40;20142;-70
2021/05/20 20:47:55;;;;;;;5.00;2.88;;;12.80;90.40;;;;;;5918072;40;20045;-69
2021/05/20 20:52:02;;;;;;;3.65;2.70;;;12.80;90.30;;;;;;5914196;39;20080;-70
2021/05/20 20:56:09;;;;;;;4.25;2.85;;;12.80;90.30;;;;;;5914428;40;20142;-70
2021/05/20 21:00:14;;;;;;;5.53;3.22;;;12.80;90.40;;;;;;5914365;40;20139;-70
2021/05/20 21:04:22;;;;;;;4.80;1.85;;;12.10;90.50;;;;;;5913741;40;20415;-70
2021/05/20 21:08:27;;;;;;;2.83;1.42;;;12.60;90.40;;;;;;5919605;40;20455;-70
2021/05/20 21:12:34;;;;;;;3.65;1.52;;;12.50;90.50;;;;;;5914961;40;20432;-68
2021/05/20 21:16:38;;;;;;;3.13;1.20;;;12.30;90.70;;;;;;5911314;40;20110;-68
2021/05/20 21:20:46;;;;;;;3.67;1.27;;;12.10;91.10;;;;;;5914585;40;20569;-68
2021/05/20 21:24:51;;;;;;;3.33;1.65;;;12.00;91.30;;;;;;5915554;39;20075;-68
2021/05/20 21:29:00;;;;;;;4.32;1.92;;;12.00;91.50;;;;;;5918004;40;20303;-68
2021/05/20 21:33:07;;;;;;;3.42;1.83;;;11.90;91.60;;;;;;5906731;40;20045;-68
2021/05/20 21:37:14;;;;;;;2.80;1.70;;;11.90;91.50;;;;;;5913552;40;20060;-68
2021/05/20 21:41:22;;;;;;;3.45;1.90;;;11.70;91.50;;;;;;5915770;40;20412;-67
2021/05/20 21:45:32;;;;;;;4.15;2.47;;;11.50;91.90;;;;;;5913431;40;20191;-67
2021/05/20 21:49:37;;;;;;;5.97;1.95;;;11.30;92.20;;;;;;5918595;40;20044;-67
2021/05/20 21:53:44;;;;;;;4.18;2.00;;;11.40;92.30;;;;;;5910368;40;20305;-66
2021/05/20 21:58:07;;;;;;;5.15;2.15;;;11.40;92.10;;;;;;5913247;40;20506;-66
2021/05/20 22:02:14;;;;;;;2.67;1.85;;;11.30;92.10;;;;;;5915694;40;20498;-66
2021/05/20 22:06:20;;;;;;;6.35;1.92;;;11.10;92.50;;;;;;5909212;40;20067;-66
2021/05/20 22:10:37;;;;;;;3.10;1.67;;;11.00;92.60;;;;;;5912831;40;20056;-67
2021/05/20 22:18:59;;;;;;;4.65;2.40;;;11.00;92.50;;;;;;5904382;40;20041;-67
2021/05/20 22:23:04;;;;;;;5.68;2.58;;;10.90;92.70;;;;;;5911507;40;20049;-67
2021/05/20 22:27:27;;;;;;;3.17;2.30;;;10.80;92.90;;;;;;5915687;40;20186;-66
2021/05/20 22:36:01;;;;;;;6.20;2.40;;;10.90;92.70;;;;;;5915137;40;20478;-67
2021/05/20 22:40:09;;;;;;;4.30;2.17;;;11.00;92.80;;;;;;5896412;40;20088;-66
2021/05/20 22:44:18;;;;;;;4.13;2.10;;;11.00;92.90;;;;;;5916026;40;20052;-67